createdAt,value
2022-08-19T00:00:11.691Z,16.98
2022-08-19T00:01:11.616Z,16.95
2022-08-19T00:02:11.708Z,16.95
2022-08-19T00:03:11.606Z,16.95
2022-08-19T00:04:11.597Z,16.93
2022-08-19T00:05:12.178Z,16.95
2022-08-19T00:06:11.601Z,16.95
2022-08-19T00:07:11.624Z,16.95
2022-08-19T00:08:11.611Z,16.93
2022-08-19T00:09:11.861Z,16.93
2022-08-19T00:10:11.580Z,16.93
2022-08-19T00:11:15.101Z,16.92
2022-08-19T00:12:11.499Z,16.90
2022-08-19T00:13:11.504Z,16.90
2022-08-19T00:14:11.538Z,16.90
2022-08-19T00:15:11.668Z,16.92
2022-08-19T00:16:11.660Z,16.90
2022-08-19T00:17:11.561Z,16.89
2022-08-19T00:18:11.529Z,16.90
2022-08-19T00:19:11.523Z,16.89
2022-08-19T00:20:11.490Z,16.86
2022-08-19T00:21:11.506Z,16.86
2022-08-19T00:22:11.540Z,16.83
2022-08-19T00:23:11.383Z,16.81
2022-08-19T00:24:11.527Z,16.83
2022-08-19T00:25:11.610Z,16.80
2022-08-19T00:26:11.608Z,16.80
2022-08-19T00:27:26.073Z,16.77
2022-08-19T00:28:11.668Z,16.75
2022-08-19T00:29:11.423Z,16.75
2022-08-19T00:30:11.345Z,16.75
2022-08-19T00:31:11.449Z,16.74
2022-08-19T00:32:11.361Z,16.73
2022-08-19T00:33:11.845Z,16.71
2022-08-19T00:34:11.598Z,16.71
2022-08-19T00:35:11.753Z,16.70
2022-08-19T00:36:11.236Z,16.70
2022-08-19T00:37:11.436Z,16.67
2022-08-19T00:38:11.288Z,16.68
2022-08-19T00:39:11.269Z,16.67
2022-08-19T00:40:11.260Z,16.67
2022-08-19T00:41:11.543Z,16.65
2022-08-19T00:42:11.222Z,16.63
2022-08-19T00:43:11.620Z,16.65
2022-08-19T00:44:11.199Z,16.63
2022-08-19T00:45:11.199Z,16.63
2022-08-19T00:46:11.326Z,16.62
2022-08-19T00:47:11.203Z,16.62
2022-08-19T00:48:14.754Z,16.62
2022-08-19T00:49:11.202Z,16.62
2022-08-19T00:50:11.140Z,16.62
2022-08-19T00:51:11.237Z,16.63
2022-08-19T00:52:11.083Z,16.62
2022-08-19T00:53:11.107Z,16.62
2022-08-19T00:54:11.063Z,16.60
2022-08-19T00:55:11.496Z,16.59
2022-08-19T00:56:11.095Z,16.59
2022-08-19T00:57:11.086Z,16.58
2022-08-19T00:58:11.143Z,16.56
2022-08-19T00:59:11.004Z,16.55
2022-08-19T01:00:11.025Z,16.55
2022-08-19T01:01:11.036Z,16.53
2022-08-19T01:02:11.191Z,16.53
2022-08-19T01:03:11.082Z,16.53
2022-08-19T01:04:11.058Z,16.53
2022-08-19T01:05:10.980Z,16.53
2022-08-19T01:06:10.945Z,16.49
2022-08-19T01:07:13.088Z,16.49
2022-08-19T01:08:11.153Z,16.48
2022-08-19T01:09:10.923Z,16.45
2022-08-19T01:10:10.935Z,16.45
2022-08-19T01:11:10.965Z,16.44
2022-08-19T01:12:10.892Z,16.42
2022-08-19T01:13:10.920Z,16.42
2022-08-19T01:14:11.095Z,16.41
2022-08-19T01:15:10.901Z,16.42
2022-08-19T01:16:10.926Z,16.42
2022-08-19T01:17:10.813Z,16.41
2022-08-19T01:18:10.875Z,16.41
2022-08-19T01:19:10.918Z,16.40
2022-08-19T01:20:10.982Z,16.38
2022-08-19T01:21:10.849Z,16.38
2022-08-19T01:22:14.376Z,16.38
2022-08-19T01:23:11.008Z,16.38
2022-08-19T01:24:11.077Z,16.37
2022-08-19T01:25:15.075Z,16.37
2022-08-19T01:26:10.878Z,16.37
2022-08-19T01:27:10.818Z,16.37
2022-08-19T01:28:11.324Z,16.37
2022-08-19T01:29:10.731Z,16.37
2022-08-19T01:30:10.817Z,16.37
2022-08-19T01:31:10.827Z,16.35
2022-08-19T01:32:10.897Z,16.35
2022-08-19T01:33:10.660Z,16.34
2022-08-19T01:34:10.771Z,16.34
2022-08-19T01:35:10.707Z,16.33
2022-08-19T01:36:10.704Z,16.34
2022-08-19T01:37:10.663Z,16.33
2022-08-19T01:38:11.416Z,16.35
2022-08-19T01:39:10.590Z,16.33
2022-08-19T01:40:10.866Z,16.34
2022-08-19T01:41:10.837Z,16.33
2022-08-19T01:42:10.708Z,16.33
2022-08-19T01:43:10.544Z,16.33
2022-08-19T01:44:18.822Z,16.33
2022-08-19T01:45:10.567Z,16.31
2022-08-19T01:46:10.515Z,16.31
2022-08-19T01:47:10.560Z,16.30
2022-08-19T01:48:10.559Z,16.27
2022-08-19T01:49:10.504Z,16.30
2022-08-19T01:50:10.801Z,16.27
2022-08-19T01:51:10.483Z,16.27
2022-08-19T01:52:10.594Z,16.27
2022-08-19T01:53:10.482Z,16.26
2022-08-19T01:54:10.691Z,16.26
2022-08-19T01:55:10.509Z,16.25
2022-08-19T01:56:10.455Z,16.26
2022-08-19T01:57:10.604Z,16.25
2022-08-19T01:58:10.572Z,16.25
2022-08-19T01:59:10.657Z,16.25
2022-08-19T02:00:11.446Z,16.25
2022-08-19T02:01:10.413Z,16.25
2022-08-19T02:02:10.379Z,16.25
2022-08-19T02:03:10.362Z,16.23
2022-08-19T02:04:10.347Z,16.25
2022-08-19T02:05:10.685Z,16.22
2022-08-19T02:06:10.323Z,16.25
2022-08-19T02:07:10.356Z,16.22
2022-08-19T02:08:10.303Z,16.22
2022-08-19T02:09:10.349Z,16.23
2022-08-19T02:10:12.472Z,16.22
2022-08-19T02:11:10.697Z,16.18
2022-08-19T02:12:10.251Z,16.18
2022-08-19T02:13:10.222Z,16.18
2022-08-19T02:14:10.354Z,16.20
2022-08-19T02:15:10.360Z,16.18
2022-08-19T02:16:10.196Z,16.22
2022-08-19T02:17:10.199Z,16.22
2022-08-19T02:18:10.183Z,16.20
2022-08-19T02:19:10.276Z,16.18
2022-08-19T02:20:10.209Z,16.16
2022-08-19T02:21:10.147Z,16.16
2022-08-19T02:22:10.322Z,16.14
2022-08-19T02:23:13.988Z,16.14
2022-08-19T02:24:10.196Z,16.12
2022-08-19T02:25:10.082Z,16.14
2022-08-19T02:26:10.333Z,16.12
2022-08-19T02:27:10.111Z,16.12
2022-08-19T02:28:10.181Z,16.11
2022-08-19T02:29:10.143Z,16.09
2022-08-19T02:30:10.063Z,16.07
2022-08-19T02:31:10.064Z,16.07
2022-08-19T02:32:10.469Z,16.07
2022-08-19T02:33:10.082Z,16.06
2022-08-19T02:34:10.090Z,16.06
2022-08-19T02:35:12.120Z,16.04
2022-08-19T02:36:09.979Z,16.04
2022-08-19T02:37:10.044Z,16.01
2022-08-19T02:38:10.040Z,16.03
2022-08-19T02:39:10.081Z,16.01
2022-08-19T02:40:12.584Z,16.01
2022-08-19T02:41:09.937Z,16.00
2022-08-19T02:42:09.967Z,16.00
2022-08-19T02:43:10.119Z,15.99
2022-08-19T02:44:29.566Z,15.97
2022-08-19T02:45:10.124Z,15.97
2022-08-19T02:46:10.124Z,15.97
2022-08-19T02:47:09.978Z,15.97
2022-08-19T02:48:12.805Z,15.97
2022-08-19T02:49:09.880Z,15.97
2022-08-19T02:50:10.077Z,15.96
2022-08-19T02:51:10.053Z,15.96
2022-08-19T02:52:09.929Z,15.96
2022-08-19T02:53:09.940Z,15.97
2022-08-19T02:54:09.857Z,15.97
2022-08-19T02:55:10.001Z,15.96
2022-08-19T02:56:10.711Z,15.97
2022-08-19T02:57:09.980Z,15.97
2022-08-19T02:58:09.835Z,15.97
2022-08-19T02:59:10.227Z,15.97
2022-08-19T03:00:09.774Z,16.00
2022-08-19T03:01:09.810Z,15.99
2022-08-19T03:02:10.057Z,16.00
2022-08-19T03:03:09.689Z,15.99
2022-08-19T03:04:09.722Z,15.97
2022-08-19T03:05:09.724Z,15.99
2022-08-19T03:06:09.725Z,15.96
2022-08-19T03:07:11.051Z,15.94
2022-08-19T03:08:09.814Z,15.94
2022-08-19T03:09:09.801Z,15.94
2022-08-19T03:10:09.706Z,15.94
2022-08-19T03:11:09.626Z,15.93
2022-08-19T03:12:09.737Z,15.92
2022-08-19T03:13:09.785Z,15.89
2022-08-19T03:14:09.710Z,15.92
2022-08-19T03:15:09.749Z,15.89
2022-08-19T03:16:09.622Z,15.89
2022-08-19T03:17:09.588Z,15.89
2022-08-19T03:18:09.565Z,15.89
2022-08-19T03:19:09.767Z,15.93
2022-08-19T03:20:10.267Z,15.92
2022-08-19T03:21:10.479Z,15.89
2022-08-19T03:22:09.736Z,15.92
2022-08-19T03:23:09.521Z,15.92
2022-08-19T03:24:09.771Z,15.89
2022-08-19T03:25:09.538Z,15.89
2022-08-19T03:26:16.003Z,15.88
2022-08-19T03:27:09.785Z,15.89
2022-08-19T03:28:09.453Z,15.88
2022-08-19T03:29:09.715Z,15.86
2022-08-19T03:30:11.689Z,15.86
2022-08-19T03:31:41.818Z,15.86
2022-08-19T03:32:09.649Z,15.86
2022-08-19T03:33:09.669Z,15.84
2022-08-19T03:34:09.415Z,15.84
2022-08-19T03:35:09.403Z,15.82
2022-08-19T03:36:09.376Z,15.82
2022-08-19T03:37:09.532Z,15.82
2022-08-19T03:38:09.656Z,15.82
2022-08-19T03:39:09.387Z,15.81
2022-08-19T03:40:09.434Z,15.82
2022-08-19T03:41:09.396Z,15.81
2022-08-19T03:42:32.503Z,15.81
2022-08-19T03:43:09.418Z,15.81
2022-08-19T03:44:09.500Z,15.82
2022-08-19T03:45:09.297Z,15.82
2022-08-19T03:46:09.480Z,15.81
2022-08-19T03:47:09.301Z,15.81
2022-08-19T03:48:09.531Z,15.82
2022-08-19T03:49:09.437Z,15.81
2022-08-19T03:50:09.493Z,15.81
2022-08-19T03:51:09.445Z,15.81
2022-08-19T03:52:09.261Z,15.81
2022-08-19T03:53:09.294Z,15.81
2022-08-19T03:54:09.344Z,15.82
2022-08-19T03:55:09.229Z,15.81
2022-08-19T03:56:09.374Z,15.82
2022-08-19T03:57:09.169Z,15.81
2022-08-19T03:58:09.329Z,15.78
2022-08-19T03:59:09.147Z,15.78
2022-08-19T04:00:13.478Z,15.78
2022-08-19T04:01:09.171Z,15.76
2022-08-19T04:02:09.305Z,15.78
2022-08-19T04:03:09.313Z,15.75
2022-08-19T04:04:09.578Z,15.75
2022-08-19T04:05:09.177Z,15.75
2022-08-19T04:06:09.255Z,15.74
2022-08-19T04:07:09.352Z,15.72
2022-08-19T04:08:13.682Z,15.70
2022-08-19T04:09:09.174Z,15.68
2022-08-19T04:10:09.227Z,15.68
2022-08-19T04:11:09.287Z,15.68
2022-08-19T04:12:09.267Z,15.68
2022-08-19T04:13:09.025Z,15.67
2022-08-19T04:14:09.105Z,15.67
2022-08-19T04:15:09.098Z,15.67
2022-08-19T04:16:09.008Z,15.66
2022-08-19T04:17:08.974Z,15.64
2022-08-19T04:18:08.979Z,15.64
2022-08-19T04:19:09.085Z,15.61
2022-08-19T04:20:09.085Z,15.63
2022-08-19T04:21:09.116Z,15.61
2022-08-19T04:22:08.958Z,15.61
2022-08-19T04:23:09.034Z,15.61
2022-08-19T04:24:09.111Z,15.60
2022-08-19T04:25:09.094Z,15.61
2022-08-19T04:26:09.380Z,15.63
2022-08-19T04:27:08.895Z,15.60
2022-08-19T04:28:08.932Z,15.60
2022-08-19T04:29:12.548Z,15.61
2022-08-19T04:30:08.987Z,15.59
2022-08-19T04:31:08.839Z,15.59
2022-08-19T04:32:09.909Z,15.59
2022-08-19T04:33:09.027Z,15.59
2022-08-19T04:34:08.831Z,15.59
2022-08-19T04:35:17.536Z,15.57
2022-08-19T04:36:08.813Z,15.57
2022-08-19T04:37:08.920Z,15.57
2022-08-19T04:38:08.821Z,15.56
2022-08-19T04:39:08.779Z,15.54
2022-08-19T04:40:08.760Z,15.54
2022-08-19T04:41:08.909Z,15.54
2022-08-19T04:42:08.767Z,15.52
2022-08-19T04:43:08.872Z,15.54
2022-08-19T04:44:08.732Z,15.52
2022-08-19T04:45:09.498Z,15.54
2022-08-19T04:46:08.935Z,15.54
2022-08-19T04:47:11.440Z,15.56
2022-08-19T04:48:26.268Z,15.56
2022-08-19T04:49:09.107Z,15.57
2022-08-19T04:50:08.682Z,15.57
2022-08-19T04:51:08.818Z,15.57
2022-08-19T04:52:08.657Z,15.57
2022-08-19T04:53:08.922Z,15.59
2022-08-19T04:54:08.740Z,15.59
2022-08-19T04:55:08.735Z,15.59
2022-08-19T04:56:08.709Z,15.59
2022-08-19T04:57:08.677Z,15.61
2022-08-19T04:58:08.693Z,15.61
2022-08-19T04:59:08.906Z,15.63
2022-08-19T05:00:08.580Z,15.64
2022-08-19T05:01:09.102Z,15.66
2022-08-19T05:02:08.589Z,15.67
2022-08-19T05:03:08.671Z,15.68
2022-08-19T05:04:08.505Z,15.70
2022-08-19T05:05:08.743Z,15.70
2022-08-19T05:06:08.705Z,15.74
2022-08-19T05:07:08.509Z,15.74
2022-08-19T05:08:08.719Z,15.76
2022-08-19T05:09:09.156Z,15.78
2022-08-19T05:10:08.657Z,15.78
2022-08-19T05:11:08.863Z,15.81
2022-08-19T05:12:08.560Z,15.81
2022-08-19T05:13:08.422Z,15.85
2022-08-19T05:14:08.586Z,15.86
2022-08-19T05:15:08.534Z,15.89
2022-08-19T05:16:08.403Z,15.93
2022-08-19T05:17:26.680Z,15.97
2022-08-19T05:18:08.408Z,15.99
2022-08-19T05:19:08.525Z,16.03
2022-08-19T05:20:08.427Z,16.07
2022-08-19T05:21:08.535Z,16.15
2022-08-19T05:22:08.387Z,16.23
2022-08-19T05:23:09.578Z,16.31
2022-08-19T05:24:08.303Z,16.35
2022-08-19T05:25:15.105Z,16.41
2022-08-19T05:26:08.529Z,16.45
2022-08-19T05:27:08.285Z,16.52
2022-08-19T05:28:08.442Z,16.59
2022-08-19T05:29:08.427Z,16.65
2022-08-19T05:30:08.427Z,16.73
2022-08-19T05:31:08.250Z,16.78
2022-08-19T05:32:08.794Z,16.83
2022-08-19T05:33:08.365Z,16.90
2022-08-19T05:34:20.009Z,16.95
2022-08-19T05:35:08.183Z,16.99
2022-08-19T05:36:08.180Z,17.04
2022-08-19T05:37:08.557Z,17.08
2022-08-19T05:38:08.346Z,17.13
2022-08-19T05:39:08.469Z,17.17
2022-08-19T05:40:08.184Z,17.20
2022-08-19T05:41:08.191Z,17.22
2022-08-19T05:42:08.307Z,17.25
2022-08-19T05:43:08.107Z,17.28
2022-08-19T05:44:08.263Z,17.29
2022-08-19T05:45:08.153Z,17.29
2022-08-19T05:46:08.062Z,17.30
2022-08-19T05:47:08.147Z,17.30
2022-08-19T05:48:08.135Z,17.32
2022-08-19T05:49:08.056Z,17.33
2022-08-19T05:50:08.229Z,17.33
2022-08-19T05:51:08.047Z,17.36
2022-08-19T05:52:08.246Z,17.41
2022-08-19T05:53:08.080Z,17.40
2022-08-19T05:54:08.128Z,17.43
2022-08-19T05:55:08.221Z,17.46
2022-08-19T05:56:08.422Z,17.48
2022-08-19T05:57:08.245Z,17.48
2022-08-19T05:58:08.007Z,17.50
2022-08-19T05:59:08.078Z,17.54
2022-08-19T06:00:07.985Z,17.55
2022-08-19T06:01:08.171Z,17.57
2022-08-19T06:02:08.183Z,17.59
2022-08-19T06:03:09.719Z,17.64
2022-08-19T06:04:07.917Z,17.67
2022-08-19T06:05:08.216Z,17.73
2022-08-19T06:06:07.909Z,17.76
2022-08-19T06:07:12.766Z,17.81
2022-08-19T06:08:07.952Z,17.82
2022-08-19T06:09:07.999Z,17.87
2022-08-19T06:10:07.885Z,17.88
2022-08-19T06:11:07.807Z,17.91
2022-08-19T06:12:07.848Z,17.95
2022-08-19T06:13:07.835Z,18.00
2022-08-19T06:14:07.848Z,18.03
2022-08-19T06:15:07.833Z,18.06
2022-08-19T06:16:07.790Z,18.09
2022-08-19T06:17:07.786Z,18.09
2022-08-19T06:18:07.783Z,18.12
2022-08-19T06:19:07.729Z,18.15
2022-08-19T06:20:07.769Z,18.17
2022-08-19T06:21:07.750Z,18.19
2022-08-19T06:22:07.812Z,18.21
2022-08-19T06:23:07.707Z,18.22
2022-08-19T06:24:07.683Z,18.24
2022-08-19T06:25:07.712Z,18.28
2022-08-19T06:26:07.937Z,18.29
2022-08-19T06:27:07.728Z,18.31
2022-08-19T06:28:15.730Z,18.33
2022-08-19T06:29:07.669Z,18.33
2022-08-19T06:30:07.589Z,18.33
2022-08-19T06:31:07.731Z,18.34
2022-08-19T06:32:07.686Z,18.36
2022-08-19T06:33:07.606Z,18.37
2022-08-19T06:34:07.646Z,18.37
2022-08-19T06:35:07.783Z,18.39
2022-08-19T06:36:07.619Z,18.43
2022-08-19T06:37:07.534Z,18.43
2022-08-19T06:38:07.683Z,18.43
2022-08-19T06:39:07.570Z,18.44
2022-08-19T06:40:07.718Z,18.47
2022-08-19T06:41:08.206Z,18.50
2022-08-19T06:42:09.153Z,18.55
2022-08-19T06:43:09.385Z,18.57
2022-08-19T06:44:07.562Z,18.59
2022-08-19T06:45:09.246Z,18.64
2022-08-19T06:46:07.643Z,18.65
2022-08-19T06:47:14.291Z,18.72
2022-08-19T06:48:07.682Z,18.73
2022-08-19T06:49:07.464Z,18.77
2022-08-19T06:50:07.467Z,18.80
2022-08-19T06:51:08.620Z,18.84
2022-08-19T06:52:07.423Z,18.86
2022-08-19T06:53:07.428Z,18.92
2022-08-19T06:54:07.512Z,18.97
2022-08-19T06:55:07.432Z,18.99
2022-08-19T06:56:07.429Z,19.06
2022-08-19T06:57:07.380Z,19.11
2022-08-19T06:58:07.387Z,19.15
2022-08-19T06:59:07.444Z,19.18
2022-08-19T07:00:10.923Z,19.24
2022-08-19T07:01:09.190Z,19.31
2022-08-19T07:02:07.441Z,19.33
2022-08-19T07:03:08.781Z,19.38
2022-08-19T07:04:07.321Z,19.39
2022-08-19T07:05:07.352Z,19.43
2022-08-19T07:06:09.844Z,19.48
2022-08-19T07:07:20.183Z,19.53
2022-08-19T07:08:07.307Z,19.60
2022-08-19T07:09:07.400Z,19.63
2022-08-19T07:10:07.844Z,19.68
2022-08-19T07:11:09.353Z,19.72
2022-08-19T07:12:07.203Z,19.73
2022-08-19T07:13:07.325Z,19.76
2022-08-19T07:14:07.264Z,19.78
2022-08-19T07:15:07.430Z,19.80
2022-08-19T07:16:07.290Z,19.83
2022-08-19T07:17:07.153Z,19.83
2022-08-19T07:18:07.168Z,19.83
2022-08-19T07:19:15.762Z,19.86
2022-08-19T07:20:09.452Z,19.88
2022-08-19T07:21:09.367Z,19.90
2022-08-19T07:22:07.267Z,19.94
2022-08-19T07:23:07.333Z,19.94
2022-08-19T07:24:07.336Z,19.98
2022-08-19T07:25:07.118Z,20.03
2022-08-19T07:26:07.326Z,20.06
2022-08-19T07:27:15.132Z,20.09
2022-08-19T07:28:07.233Z,20.10
2022-08-19T07:29:07.035Z,20.12
2022-08-19T07:30:07.079Z,20.15
2022-08-19T07:31:07.301Z,20.20
2022-08-19T07:32:07.035Z,20.24
2022-08-19T07:33:07.123Z,20.28
2022-08-19T07:34:06.990Z,20.34
2022-08-19T07:35:07.030Z,20.42
2022-08-19T07:36:06.965Z,20.49
2022-08-19T07:37:06.948Z,20.54
2022-08-19T07:38:07.042Z,20.65
2022-08-19T07:39:07.038Z,20.72
2022-08-19T07:40:07.154Z,20.80
2022-08-19T07:41:06.958Z,20.86
2022-08-19T07:42:06.972Z,20.90
2022-08-19T07:43:07.877Z,20.96
2022-08-19T07:44:07.123Z,21.02
2022-08-19T07:45:06.884Z,21.08
2022-08-19T07:46:06.955Z,21.14
2022-08-19T07:47:06.957Z,21.20
2022-08-19T07:48:07.001Z,21.26
2022-08-19T07:49:06.997Z,21.32
2022-08-19T07:50:07.879Z,21.36
2022-08-19T07:51:07.225Z,21.44
2022-08-19T07:52:07.067Z,21.53
2022-08-19T07:53:06.849Z,21.59
2022-08-19T07:54:07.083Z,21.67
2022-08-19T07:55:07.082Z,21.75
2022-08-19T07:56:07.077Z,21.82
2022-08-19T07:57:07.002Z,21.91
2022-08-19T07:58:06.845Z,21.98
2022-08-19T07:59:06.782Z,22.04
2022-08-19T08:00:06.753Z,22.14
2022-08-19T08:01:06.828Z,22.25
2022-08-19T08:02:06.999Z,22.34
2022-08-19T08:03:06.858Z,22.44
2022-08-19T08:04:06.715Z,22.52
2022-08-19T08:05:06.781Z,22.59
2022-08-19T08:06:06.941Z,22.67
2022-08-19T08:07:07.175Z,22.72
2022-08-19T08:08:06.866Z,22.77
2022-08-19T08:09:06.955Z,22.78
2022-08-19T08:10:08.565Z,22.87
2022-08-19T08:11:07.767Z,22.96
2022-08-19T08:12:33.103Z,23.02
2022-08-19T08:13:08.718Z,23.05
2022-08-19T08:14:06.997Z,23.14
2022-08-19T08:15:08.169Z,23.20
2022-08-19T08:16:06.561Z,23.26
2022-08-19T08:17:11.025Z,23.34
2022-08-19T08:18:06.736Z,23.42
2022-08-19T08:19:07.105Z,23.47
2022-08-19T08:20:06.663Z,23.50
2022-08-19T08:21:06.721Z,23.57
2022-08-19T08:22:06.815Z,23.61
2022-08-19T08:23:06.520Z,23.64
2022-08-19T08:24:06.617Z,23.71
2022-08-19T08:25:06.744Z,23.75
2022-08-19T08:26:06.588Z,23.82
2022-08-19T08:27:11.371Z,23.83
2022-08-19T08:28:06.915Z,23.86
2022-08-19T08:29:12.733Z,23.85
2022-08-19T08:30:06.495Z,23.77
2022-08-19T08:31:09.625Z,23.72
2022-08-19T08:32:14.129Z,23.72
2022-08-19T08:33:06.518Z,23.68
2022-08-19T08:34:06.545Z,23.64
2022-08-19T08:35:06.366Z,23.64
2022-08-19T08:36:06.383Z,23.68
2022-08-19T08:37:06.630Z,23.70
2022-08-19T08:38:06.381Z,23.76
2022-08-19T08:39:06.419Z,23.83
2022-08-19T08:40:08.086Z,23.89
2022-08-19T08:41:06.308Z,23.95
2022-08-19T08:42:10.397Z,24.05
2022-08-19T08:43:06.498Z,24.14
2022-08-19T08:44:06.582Z,24.24
2022-08-19T08:45:06.302Z,24.38
2022-08-19T08:46:06.308Z,24.44
2022-08-19T08:47:07.904Z,24.52
2022-08-19T08:48:06.261Z,24.61
2022-08-19T08:49:06.318Z,24.71
2022-08-19T08:50:06.349Z,24.82
2022-08-19T08:51:06.265Z,24.92
2022-08-19T08:52:06.235Z,24.98
2022-08-19T08:53:06.215Z,25.02
2022-08-19T08:54:06.259Z,24.97
2022-08-19T08:55:10.492Z,24.94
2022-08-19T08:56:06.536Z,24.85
2022-08-19T08:57:06.241Z,24.82
2022-08-19T08:58:06.421Z,24.79
2022-08-19T08:59:06.171Z,24.76
2022-08-19T09:00:06.208Z,24.69
2022-08-19T09:01:06.622Z,24.63
2022-08-19T09:02:06.339Z,24.57
2022-08-19T09:03:06.120Z,24.54
2022-08-19T09:04:06.163Z,24.49
2022-08-19T09:05:06.123Z,24.41
2022-08-19T09:06:06.216Z,24.37
2022-08-19T09:07:18.412Z,24.37
2022-08-19T09:08:06.316Z,24.37
2022-08-19T09:09:11.961Z,24.34
2022-08-19T09:10:06.068Z,24.35
2022-08-19T09:11:07.027Z,24.32
2022-08-19T09:12:06.042Z,24.34
2022-08-19T09:13:09.518Z,24.34
2022-08-19T09:14:06.160Z,24.24
2022-08-19T09:15:06.155Z,24.22
2022-08-19T09:16:06.047Z,24.19
2022-08-19T09:17:06.027Z,24.05
2022-08-19T09:18:07.230Z,24.05
2022-08-19T09:19:06.402Z,24.05
2022-08-19T09:20:06.073Z,24.10
2022-08-19T09:21:06.028Z,24.17
2022-08-19T09:22:05.904Z,24.19
2022-08-19T09:23:06.050Z,24.26
2022-08-19T09:24:06.208Z,24.34
2022-08-19T09:25:06.064Z,24.42
2022-08-19T09:26:06.105Z,24.50
2022-08-19T09:27:18.593Z,24.56
2022-08-19T09:28:15.103Z,24.60
2022-08-19T09:29:05.904Z,24.67
2022-08-19T09:30:06.046Z,24.75
2022-08-19T09:31:06.425Z,24.79
2022-08-19T09:32:06.233Z,24.87
2022-08-19T09:33:06.062Z,24.94
2022-08-19T09:34:05.947Z,25.06
2022-08-19T09:35:08.730Z,25.20
2022-08-19T09:36:08.594Z,25.27
2022-08-19T09:37:05.880Z,25.39
2022-08-19T09:38:05.905Z,25.54
2022-08-19T09:39:16.272Z,25.64
2022-08-19T09:40:05.918Z,25.72
2022-08-19T09:41:05.741Z,25.83
2022-08-19T09:42:05.794Z,25.89
2022-08-19T09:43:10.105Z,25.98
2022-08-19T09:44:05.832Z,26.15
2022-08-19T09:45:05.966Z,26.24
2022-08-19T09:46:05.768Z,26.35
2022-08-19T09:47:05.698Z,26.47
2022-08-19T09:48:05.816Z,26.61
2022-08-19T09:49:06.728Z,26.67
2022-08-19T09:50:06.173Z,26.65
2022-08-19T09:51:05.851Z,26.64
2022-08-19T09:52:05.699Z,26.67
2022-08-19T09:53:05.753Z,26.52
2022-08-19T09:54:05.743Z,26.47
2022-08-19T09:55:07.103Z,26.52
2022-08-19T09:56:05.628Z,26.57
2022-08-19T09:57:07.642Z,26.65
2022-08-19T09:58:05.549Z,26.76
2022-08-19T09:59:06.000Z,26.79
2022-08-19T10:00:05.567Z,26.92
2022-08-19T10:01:05.808Z,27.13
2022-08-19T10:02:10.810Z,27.24
2022-08-19T10:03:05.885Z,27.33
2022-08-19T10:04:14.743Z,27.53
2022-08-19T10:05:05.571Z,27.70
2022-08-19T10:06:05.548Z,27.70
2022-08-19T10:07:05.580Z,27.54
2022-08-19T10:08:05.563Z,27.57
2022-08-19T10:09:05.513Z,27.51
2022-08-19T10:10:05.478Z,27.54
2022-08-19T10:11:28.497Z,27.31
2022-08-19T10:12:06.112Z,27.06
2022-08-19T10:13:05.438Z,26.94
2022-08-19T10:14:05.612Z,26.92
2022-08-19T10:15:05.466Z,26.92
2022-08-19T10:16:05.472Z,26.84
2022-08-19T10:17:19.136Z,26.87
2022-08-19T10:18:05.621Z,26.80
2022-08-19T10:19:05.952Z,26.81
2022-08-19T10:20:05.501Z,26.94
2022-08-19T10:21:05.400Z,27.11
2022-08-19T10:22:05.433Z,27.17
2022-08-19T10:23:05.353Z,27.17
2022-08-19T10:24:05.411Z,27.09
2022-08-19T10:25:05.301Z,27.13
2022-08-19T10:26:05.387Z,27.09
2022-08-19T10:27:05.308Z,27.01
2022-08-19T10:28:05.297Z,27.05
2022-08-19T10:29:05.302Z,27.23
2022-08-19T10:30:05.308Z,27.31
2022-08-19T10:31:05.266Z,27.31
2022-08-19T10:32:05.312Z,27.26
2022-08-19T10:33:10.871Z,27.36
2022-08-19T10:34:05.425Z,27.48
2022-08-19T10:35:05.423Z,27.61
2022-08-19T10:36:05.221Z,27.79
2022-08-19T10:37:05.225Z,27.73
2022-08-19T10:38:05.432Z,27.73
2022-08-19T10:39:05.454Z,27.95
2022-08-19T10:40:05.351Z,28.22
2022-08-19T10:41:05.378Z,28.22
2022-08-19T10:42:05.180Z,28.13
2022-08-19T10:43:05.197Z,27.84
2022-08-19T10:44:05.198Z,27.89
2022-08-19T10:45:05.155Z,27.71
2022-08-19T10:46:05.158Z,27.79
2022-08-19T10:47:05.146Z,28.04
2022-08-19T10:48:05.409Z,28.22
2022-08-19T10:49:05.080Z,28.41
2022-08-19T10:50:05.116Z,28.68
2022-08-19T10:51:05.118Z,28.93
2022-08-19T10:52:05.076Z,28.87
2022-08-19T10:53:09.651Z,28.66
2022-08-19T10:54:06.872Z,28.31
2022-08-19T10:55:08.241Z,28.03
2022-08-19T10:56:05.420Z,27.70
2022-08-19T10:57:05.255Z,27.67
2022-08-19T10:58:05.623Z,27.67
2022-08-19T10:59:05.004Z,27.74
2022-08-19T11:00:04.985Z,27.64
2022-08-19T11:01:05.053Z,27.41
2022-08-19T11:02:05.033Z,27.38
2022-08-19T11:03:05.307Z,27.29
2022-08-19T11:04:04.998Z,27.10
2022-08-19T11:05:05.177Z,27.19
2022-08-19T11:06:05.501Z,27.42
2022-08-19T11:07:05.108Z,27.76
2022-08-19T11:08:21.258Z,27.79
2022-08-19T11:09:05.198Z,27.64
2022-08-19T11:10:04.912Z,27.51
2022-08-19T11:11:04.936Z,27.58
2022-08-19T11:12:05.182Z,27.66
2022-08-19T11:13:04.872Z,27.57
2022-08-19T11:14:04.919Z,27.42
2022-08-19T11:15:04.844Z,27.51
2022-08-19T11:16:07.598Z,27.33
2022-08-19T11:17:04.966Z,27.26
2022-08-19T11:18:05.295Z,27.26
2022-08-19T11:19:04.874Z,27.58
2022-08-19T11:20:04.942Z,28.01
2022-08-19T11:21:04.876Z,28.35
2022-08-19T11:22:04.883Z,28.58
2022-08-19T11:23:05.078Z,28.78
2022-08-19T11:24:04.856Z,28.77
2022-08-19T11:25:04.897Z,28.56
2022-08-19T11:26:04.907Z,28.35
2022-08-19T11:27:04.799Z,28.13
2022-08-19T11:28:04.824Z,27.91
2022-08-19T11:29:04.830Z,27.89
2022-08-19T11:30:04.974Z,28.11
2022-08-19T11:31:04.901Z,28.35
2022-08-19T11:32:04.840Z,28.17
2022-08-19T11:33:05.013Z,28.11
2022-08-19T11:34:04.876Z,27.95
2022-08-19T11:35:04.666Z,27.86
2022-08-19T11:36:04.666Z,27.70
2022-08-19T11:37:04.598Z,27.82
2022-08-19T11:38:08.250Z,27.50
2022-08-19T11:39:04.643Z,27.21
2022-08-19T11:40:04.735Z,27.01
2022-08-19T11:41:04.632Z,26.83
2022-08-19T11:42:04.802Z,26.72
2022-08-19T11:43:04.665Z,26.83
2022-08-19T11:44:04.862Z,26.74
2022-08-19T11:45:04.532Z,26.77
2022-08-19T11:46:04.591Z,26.79
2022-08-19T11:47:08.900Z,26.77
2022-08-19T11:48:04.564Z,27.04
2022-08-19T11:49:04.597Z,27.46
2022-08-19T11:50:04.561Z,27.92
2022-08-19T11:51:04.659Z,28.35
2022-08-19T11:52:04.659Z,28.62
2022-08-19T11:53:04.524Z,28.97
2022-08-19T11:54:04.520Z,29.31
2022-08-19T11:55:04.443Z,29.70
2022-08-19T11:56:04.845Z,29.94
2022-08-19T11:57:04.428Z,30.11
2022-08-19T11:58:04.445Z,30.30
2022-08-19T11:59:04.446Z,30.12
2022-08-19T12:00:04.588Z,29.71
2022-08-19T12:01:04.401Z,29.29
2022-08-19T12:02:04.549Z,29.00
2022-08-19T12:03:04.435Z,28.62
2022-08-19T12:04:04.407Z,28.44
2022-08-19T12:05:06.167Z,28.65
2022-08-19T12:06:04.361Z,28.96
2022-08-19T12:07:04.453Z,29.29
2022-08-19T12:08:04.495Z,29.23
2022-08-19T12:09:04.414Z,29.13
2022-08-19T12:10:04.378Z,28.91
2022-08-19T12:11:04.391Z,29.00
2022-08-19T12:12:04.318Z,29.22
2022-08-19T12:13:04.478Z,29.47
2022-08-19T12:14:04.337Z,29.71
2022-08-19T12:15:04.312Z,30.03
2022-08-19T12:16:04.320Z,30.23
2022-08-19T12:17:04.438Z,30.08
2022-08-19T12:18:04.354Z,29.89
2022-08-19T12:19:04.346Z,29.86
2022-08-19T12:20:04.245Z,29.78
2022-08-19T12:21:04.644Z,29.68
2022-08-19T12:22:04.199Z,29.33
2022-08-19T12:23:04.280Z,29.04
2022-08-19T12:24:04.401Z,28.78
2022-08-19T12:25:04.282Z,28.46
2022-08-19T12:26:04.291Z,28.11
2022-08-19T12:27:04.562Z,27.82
2022-08-19T12:28:04.656Z,27.59
2022-08-19T12:29:04.590Z,27.58
2022-08-19T12:30:04.166Z,27.33
2022-08-19T12:31:04.240Z,27.31
2022-08-19T12:32:04.282Z,27.57
2022-08-19T12:33:04.297Z,27.70
2022-08-19T12:34:04.309Z,27.96
2022-08-19T12:35:04.245Z,28.29
2022-08-19T12:36:04.149Z,28.62
2022-08-19T12:37:04.228Z,28.93
2022-08-19T12:38:04.082Z,29.00
2022-08-19T12:39:04.071Z,29.15
2022-08-19T12:40:04.551Z,29.26
2022-08-19T12:41:04.082Z,29.44
2022-08-19T12:42:04.065Z,29.59
2022-08-19T12:43:04.120Z,29.75
2022-08-19T12:44:04.066Z,29.90
2022-08-19T12:45:04.129Z,29.99
2022-08-19T12:46:04.133Z,30.02
2022-08-19T12:47:04.363Z,29.89
2022-08-19T12:48:03.987Z,29.89
2022-08-19T12:49:19.940Z,29.78
2022-08-19T12:50:06.904Z,29.71
2022-08-19T12:51:04.033Z,29.81
2022-08-19T12:52:03.996Z,29.70